sensor_id;sensor_type;location;lat;lon;timestamp;P1;durP1;ratioP1;P2;durP2;ratioP2
65375;SDS011;51976;47.332;9.404;2023-07-02T00:00:33;1.85;;;1.20;;
65375;SDS011;51976;47.332;9.404;2023-07-02T00:03:00;1.90;;;1.08;;
65375;SDS011;51976;47.332;9.404;2023-07-02T00:05:26;1.33;;;0.95;;
65375;SDS011;51976;47.332;9.404;2023-07-02T00:07:51;2.20;;;1.20;;
65375;SDS011;51976;47.332;9.404;2023-07-02T00:10:17;1.52;;;1.20;;
65375;SDS011;51976;47.332;9.404;2023-07-02T00:12:42;1.38;;;1.02;;
65375;SDS011;51976;47.332;9.404;2023-07-02T00:15:09;1.63;;;1.10;;
65375;SDS011;51976;47.332;9.404;2023-07-02T00:17:35;1.50;;;1.00;;
65375;SDS011;51976;47.332;9.404;2023-07-02T00:20:05;3.60;;;1.02;;
65375;SDS011;51976;47.332;9.404;2023-07-02T00:22:39;2.53;;;1.45;;
65375;SDS011;51976;47.332;9.404;2023-07-02T00:25:06;1.45;;;1.15;;
65375;SDS011;51976;47.332;9.404;2023-07-02T00:27:32;1.90;;;1.15;;
65375;SDS011;51976;47.332;9.404;2023-07-02T00:29:58;4.65;;;1.10;;
65375;SDS011;51976;47.332;9.404;2023-07-02T00:32:23;1.17;;;0.93;;
65375;SDS011;51976;47.332;9.404;2023-07-02T00:34:49;1.67;;;1.15;;
65375;SDS011;51976;47.332;9.404;2023-07-02T00:37:14;3.17;;;1.20;;
65375;SDS011;51976;47.332;9.404;2023-07-02T00:39:40;2.20;;;1.60;;
65375;SDS011;51976;47.332;9.404;2023-07-02T00:42:05;2.58;;;1.17;;
65375;SDS011;51976;47.332;9.404;2023-07-02T00:44:31;2.15;;;1.52;;
65375;SDS011;51976;47.332;9.404;2023-07-02T00:46:56;1.60;;;1.15;;
65375;SDS011;51976;47.332;9.404;2023-07-02T00:49:22;1.88;;;1.30;;
65375;SDS011;51976;47.332;9.404;2023-07-02T00:51:48;1.10;;;0.93;;
65375;SDS011;51976;47.332;9.404;2023-07-02T00:54:14;1.60;;;1.20;;
65375;SDS011;51976;47.332;9.404;2023-07-02T00:56:39;4.68;;;1.20;;
65375;SDS011;51976;47.332;9.404;2023-07-02T00:59:05;1.60;;;1.10;;
65375;SDS011;51976;47.332;9.404;2023-07-02T01:01:31;2.95;;;1.80;;
65375;SDS011;51976;47.332;9.404;2023-07-02T01:04:03;1.52;;;1.20;;
65375;SDS011;51976;47.332;9.404;2023-07-02T01:06:33;1.80;;;1.00;;
65375;SDS011;51976;47.332;9.404;2023-07-02T01:09:01;1.30;;;1.05;;
65375;SDS011;51976;47.332;9.404;2023-07-02T01:11:29;1.73;;;1.15;;
65375;SDS011;51976;47.332;9.404;2023-07-02T01:13:59;3.67;;;1.55;;
65375;SDS011;51976;47.332;9.404;2023-07-02T01:16:30;2.67;;;1.27;;
65375;SDS011;51976;47.332;9.404;2023-07-02T01:18:58;2.13;;;1.15;;
65375;SDS011;51976;47.332;9.404;2023-07-02T01:21:29;2.10;;;1.05;;
65375;SDS011;51976;47.332;9.404;2023-07-02T01:23:55;2.10;;;1.30;;
65375;SDS011;51976;47.332;9.404;2023-07-02T01:26:21;1.83;;;1.23;;
65375;SDS011;51976;47.332;9.404;2023-07-02T01:28:46;1.70;;;1.40;;
65375;SDS011;51976;47.332;9.404;2023-07-02T01:31:12;2.17;;;1.05;;
65375;SDS011;51976;47.332;9.404;2023-07-02T01:33:37;3.15;;;0.90;;
65375;SDS011;51976;47.332;9.404;2023-07-02T01:36:02;2.15;;;1.08;;
65375;SDS011;51976;47.332;9.404;2023-07-02T01:38:28;1.67;;;1.23;;
65375;SDS011;51976;47.332;9.404;2023-07-02T01:40:54;2.13;;;1.65;;
65375;SDS011;51976;47.332;9.404;2023-07-02T01:43:19;1.75;;;1.25;;
65375;SDS011;51976;47.332;9.404;2023-07-02T01:45:45;2.75;;;1.20;;
65375;SDS011;51976;47.332;9.404;2023-07-02T01:48:10;2.03;;;1.30;;
65375;SDS011;51976;47.332;9.404;2023-07-02T01:50:35;1.92;;;1.30;;
65375;SDS011;51976;47.332;9.404;2023-07-02T01:53:01;2.13;;;1.30;;
65375;SDS011;51976;47.332;9.404;2023-07-02T01:55:26;2.97;;;1.30;;
65375;SDS011;51976;47.332;9.404;2023-07-02T01:57:52;1.67;;;1.30;;
65375;SDS011;51976;47.332;9.404;2023-07-02T02:00:17;1.90;;;1.38;;
65375;SDS011;51976;47.332;9.404;2023-07-02T02:02:43;1.65;;;1.40;;
65375;SDS011;51976;47.332;9.404;2023-07-02T02:05:08;1.67;;;1.23;;
65375;SDS011;51976;47.332;9.404;2023-07-02T02:07:35;2.65;;;1.40;;
65375;SDS011;51976;47.332;9.404;2023-07-02T02:10:01;2.10;;;1.50;;
65375;SDS011;51976;47.332;9.404;2023-07-02T02:12:27;1.75;;;1.23;;
65375;SDS011;51976;47.332;9.404;2023-07-02T02:14:53;2.95;;;1.63;;
65375;SDS011;51976;47.332;9.404;2023-07-02T02:17:19;1.58;;;1.20;;
65375;SDS011;51976;47.332;9.404;2023-07-02T02:19:44;2.53;;;1.10;;
65375;SDS011;51976;47.332;9.404;2023-07-02T02:22:10;1.90;;;1.30;;
65375;SDS011;51976;47.332;9.404;2023-07-02T02:24:35;1.92;;;1.48;;
65375;SDS011;51976;47.332;9.404;2023-07-02T02:27:00;1.65;;;1.30;;
65375;SDS011;51976;47.332;9.404;2023-07-02T02:29:26;2.65;;;1.55;;
65375;SDS011;51976;47.332;9.404;2023-07-02T02:31:51;2.13;;;1.50;;
65375;SDS011;51976;47.332;9.404;2023-07-02T02:34:17;2.10;;;1.40;;
65375;SDS011;51976;47.332;9.404;2023-07-02T02:36:42;1.80;;;1.50;;
65375;SDS011;51976;47.332;9.404;2023-07-02T02:39:08;2.15;;;1.70;;
65375;SDS011;51976;47.332;9.404;2023-07-02T02:41:33;4.72;;;1.60;;
65375;SDS011;51976;47.332;9.404;2023-07-02T02:43:58;2.40;;;1.58;;
65375;SDS011;51976;47.332;9.404;2023-07-02T02:46:24;3.15;;;1.70;;
65375;SDS011;51976;47.332;9.404;2023-07-02T02:48:50;1.50;;;1.30;;
65375;SDS011;51976;47.332;9.404;2023-07-02T02:51:16;1.35;;;1.00;;
65375;SDS011;51976;47.332;9.404;2023-07-02T02:53:42;2.40;;;1.20;;
65375;SDS011;51976;47.332;9.404;2023-07-02T02:56:07;1.27;;;0.90;;
65375;SDS011;51976;47.332;9.404;2023-07-02T02:58:33;1.40;;;0.82;;
65375;SDS011;51976;47.332;9.404;2023-07-02T03:00:58;1.48;;;0.90;;
65375;SDS011;51976;47.332;9.404;2023-07-02T03:03:23;1.00;;;0.80;;
65375;SDS011;51976;47.332;9.404;2023-07-02T03:05:49;1.52;;;0.88;;
65375;SDS011;51976;47.332;9.404;2023-07-02T03:08:15;1.40;;;0.70;;
65375;SDS011;51976;47.332;9.404;2023-07-02T03:10:41;1.48;;;0.90;;
65375;SDS011;51976;47.332;9.404;2023-07-02T03:13:06;2.35;;;0.93;;
65375;SDS011;51976;47.332;9.404;2023-07-02T03:15:32;1.42;;;1.00;;
65375;SDS011;51976;47.332;9.404;2023-07-02T03:17:57;1.92;;;1.00;;
65375;SDS011;51976;47.332;9.404;2023-07-02T03:20:22;2.38;;;1.75;;
65375;SDS011;51976;47.332;9.404;2023-07-02T03:22:48;3.15;;;1.40;;
65375;SDS011;51976;47.332;9.404;2023-07-02T03:25:14;3.88;;;1.42;;
65375;SDS011;51976;47.332;9.404;2023-07-02T03:27:39;1.88;;;1.33;;
65375;SDS011;51976;47.332;9.404;2023-07-02T03:30:05;3.10;;;1.67;;
65375;SDS011;51976;47.332;9.404;2023-07-02T03:32:31;1.95;;;1.20;;
65375;SDS011;51976;47.332;9.404;2023-07-02T03:34:56;1.58;;;0.82;;
65375;SDS011;51976;47.332;9.404;2023-07-02T03:37:21;1.77;;;1.10;;
65375;SDS011;51976;47.332;9.404;2023-07-02T03:39:47;1.20;;;0.80;;
65375;SDS011;51976;47.332;9.404;2023-07-02T03:42:12;1.88;;;1.10;;
65375;SDS011;51976;47.332;9.404;2023-07-02T03:44:38;2.60;;;0.88;;
65375;SDS011;51976;47.332;9.404;2023-07-02T03:47:03;1.60;;;1.00;;
65375;SDS011;51976;47.332;9.404;2023-07-02T03:49:29;1.98;;;1.15;;
65375;SDS011;51976;47.332;9.404;2023-07-02T03:51:54;1.83;;;1.17;;
65375;SDS011;51976;47.332;9.404;2023-07-02T03:54:19;3.20;;;1.35;;
65375;SDS011;51976;47.332;9.404;2023-07-02T03:56:45;2.22;;;1.60;;
65375;SDS011;51976;47.332;9.404;2023-07-02T03:59:10;4.18;;;1.30;;
65375;SDS011;51976;47.332;9.404;2023-07-02T04:01:36;3.72;;;1.75;;
65375;SDS011;51976;47.332;9.404;2023-07-02T04:04:01;2.60;;;1.80;;
65375;SDS011;51976;47.332;9.404;2023-07-02T04:06:27;3.78;;;2.45;;
65375;SDS011;51976;47.332;9.404;2023-07-02T04:08:52;2.60;;;2.13;;
65375;SDS011;51976;47.332;9.404;2023-07-02T04:11:17;3.95;;;2.40;;
65375;SDS011;51976;47.332;9.404;2023-07-02T04:13:43;4.68;;;2.80;;
65375;SDS011;51976;47.332;9.404;2023-07-02T04:16:08;4.35;;;2.70;;
65375;SDS011;51976;47.332;9.404;2023-07-02T04:18:34;2.67;;;2.15;;
65375;SDS011;51976;47.332;9.404;2023-07-02T04:21:00;3.80;;;2.75;;
65375;SDS011;51976;47.332;9.404;2023-07-02T04:23:26;4.20;;;2.63;;
65375;SDS011;51976;47.332;9.404;2023-07-02T04:25:51;3.00;;;2.28;;
65375;SDS011;51976;47.332;9.404;2023-07-02T04:28:17;3.25;;;2.30;;
65375;SDS011;51976;47.332;9.404;2023-07-02T04:30:43;6.18;;;2.53;;
65375;SDS011;51976;47.332;9.404;2023-07-02T04:33:08;3.58;;;2.22;;
65375;SDS011;51976;47.332;9.404;2023-07-02T04:35:34;5.22;;;2.58;;
65375;SDS011;51976;47.332;9.404;2023-07-02T04:38:02;5.22;;;3.00;;
65375;SDS011;51976;47.332;9.404;2023-07-02T04:40:28;4.60;;;3.05;;
65375;SDS011;51976;47.332;9.404;2023-07-02T04:42:53;7.45;;;3.17;;
65375;SDS011;51976;47.332;9.404;2023-07-02T04:45:24;4.50;;;2.80;;
65375;SDS011;51976;47.332;9.404;2023-07-02T04:47:50;10.25;;;3.08;;
65375;SDS011;51976;47.332;9.404;2023-07-02T04:50:16;6.57;;;2.80;;
65375;SDS011;51976;47.332;9.404;2023-07-02T04:52:42;5.05;;;3.35;;
65375;SDS011;51976;47.332;9.404;2023-07-02T04:55:08;4.38;;;3.13;;
65375;SDS011;51976;47.332;9.404;2023-07-02T04:57:34;3.42;;;2.63;;
65375;SDS011;51976;47.332;9.404;2023-07-02T04:59:59;4.30;;;2.65;;
65375;SDS011;51976;47.332;9.404;2023-07-02T05:02:25;6.60;;;3.10;;
65375;SDS011;51976;47.332;9.404;2023-07-02T05:04:51;4.82;;;2.85;;
65375;SDS011;51976;47.332;9.404;2023-07-02T05:07:16;4.32;;;2.80;;
65375;SDS011;51976;47.332;9.404;2023-07-02T05:09:41;4.00;;;2.78;;
65375;SDS011;51976;47.332;9.404;2023-07-02T05:12:07;6.15;;;3.10;;
65375;SDS011;51976;47.332;9.404;2023-07-02T05:14:33;4.55;;;2.95;;
65375;SDS011;51976;47.332;9.404;2023-07-02T05:16:58;5.28;;;3.00;;
65375;SDS011;51976;47.332;9.404;2023-07-02T05:19:23;5.18;;;3.45;;
65375;SDS011;51976;47.332;9.404;2023-07-02T05:21:49;4.00;;;2.67;;
65375;SDS011;51976;47.332;9.404;2023-07-02T05:24:14;4.70;;;2.78;;
65375;SDS011;51976;47.332;9.404;2023-07-02T05:26:40;3.78;;;2.45;;
65375;SDS011;51976;47.332;9.404;2023-07-02T05:29:05;4.85;;;3.10;;
65375;SDS011;51976;47.332;9.404;2023-07-02T05:31:31;5.43;;;3.50;;
65375;SDS011;51976;47.332;9.404;2023-07-02T05:33:56;6.15;;;3.35;;
65375;SDS011;51976;47.332;9.404;2023-07-02T05:36:22;6.03;;;3.38;;
65375;SDS011;51976;47.332;9.404;2023-07-02T05:38:47;7.13;;;3.28;;
65375;SDS011;51976;47.332;9.404;2023-07-02T05:41:19;6.97;;;3.25;;
65375;SDS011;51976;47.332;9.404;2023-07-02T05:43:45;6.32;;;3.55;;
65375;SDS011;51976;47.332;9.404;2023-07-02T05:46:10;4.55;;;3.28;;
65375;SDS011;51976;47.332;9.404;2023-07-02T05:48:37;6.32;;;4.03;;
65375;SDS011;51976;47.332;9.404;2023-07-02T05:51:02;6.18;;;4.10;;
65375;SDS011;51976;47.332;9.404;2023-07-02T05:53:28;7.75;;;4.47;;
65375;SDS011;51976;47.332;9.404;2023-07-02T05:55:53;7.53;;;4.65;;
65375;SDS011;51976;47.332;9.404;2023-07-02T05:58:19;6.43;;;3.80;;
65375;SDS011;51976;47.332;9.404;2023-07-02T06:00:44;7.30;;;4.15;;
65375;SDS011;51976;47.332;9.404;2023-07-02T06:03:14;6.78;;;3.70;;
65375;SDS011;51976;47.332;9.404;2023-07-02T06:05:48;7.15;;;4.18;;
65375;SDS011;51976;47.332;9.404;2023-07-02T06:08:14;7.47;;;4.13;;
65375;SDS011;51976;47.332;9.404;2023-07-02T06:10:41;5.88;;;3.75;;
65375;SDS011;51976;47.332;9.404;2023-07-02T06:13:06;6.65;;;4.32;;
65375;SDS011;51976;47.332;9.404;2023-07-02T06:15:32;7.03;;;4.70;;
65375;SDS011;51976;47.332;9.404;2023-07-02T06:17:57;9.45;;;5.13;;
65375;SDS011;51976;47.332;9.404;2023-07-02T06:20:22;8.60;;;5.78;;
65375;SDS011;51976;47.332;9.404;2023-07-02T06:22:48;7.30;;;5.30;;
65375;SDS011;51976;47.332;9.404;2023-07-02T06:25:13;6.28;;;3.60;;
65375;SDS011;51976;47.332;9.404;2023-07-02T06:27:39;5.57;;;3.60;;
65375;SDS011;51976;47.332;9.404;2023-07-02T06:30:04;4.63;;;3.17;;
65375;SDS011;51976;47.332;9.404;2023-07-02T06:32:31;5.13;;;3.20;;
65375;SDS011;51976;47.332;9.404;2023-07-02T06:34:56;5.60;;;3.00;;
65375;SDS011;51976;47.332;9.404;2023-07-02T06:37:21;4.32;;;2.90;;
65375;SDS011;51976;47.332;9.404;2023-07-02T06:39:47;6.22;;;2.80;;
65375;SDS011;51976;47.332;9.404;2023-07-02T06:42:12;4.70;;;3.08;;
65375;SDS011;51976;47.332;9.404;2023-07-02T06:44:38;3.85;;;3.10;;
65375;SDS011;51976;47.332;9.404;2023-07-02T06:47:03;4.80;;;2.95;;
65375;SDS011;51976;47.332;9.404;2023-07-02T06:49:29;4.55;;;2.90;;
65375;SDS011;51976;47.332;9.404;2023-07-02T06:51:54;4.75;;;2.55;;
65375;SDS011;51976;47.332;9.404;2023-07-02T06:54:19;4.32;;;2.53;;
65375;SDS011;51976;47.332;9.404;2023-07-02T06:56:45;3.63;;;2.15;;
65375;SDS011;51976;47.332;9.404;2023-07-02T06:59:10;4.50;;;2.15;;
65375;SDS011;51976;47.332;9.404;2023-07-02T07:01:35;3.08;;;2.25;;
65375;SDS011;51976;47.332;9.404;2023-07-02T07:04:01;3.92;;;2.00;;
65375;SDS011;51976;47.332;9.404;2023-07-02T07:06:27;3.28;;;2.33;;
65375;SDS011;51976;47.332;9.404;2023-07-02T07:08:52;3.30;;;2.30;;
65375;SDS011;51976;47.332;9.404;2023-07-02T07:11:18;3.53;;;2.40;;
65375;SDS011;51976;47.332;9.404;2023-07-02T07:13:43;3.08;;;2.20;;
65375;SDS011;51976;47.332;9.404;2023-07-02T07:16:09;4.63;;;2.53;;
65375;SDS011;51976;47.332;9.404;2023-07-02T07:18:34;4.95;;;2.88;;
65375;SDS011;51976;47.332;9.404;2023-07-02T07:21:00;4.72;;;3.30;;
65375;SDS011;51976;47.332;9.404;2023-07-02T07:23:25;4.97;;;2.97;;
65375;SDS011;51976;47.332;9.404;2023-07-02T07:25:50;4.80;;;3.30;;
65375;SDS011;51976;47.332;9.404;2023-07-02T07:28:16;5.32;;;3.40;;
65375;SDS011;51976;47.332;9.404;2023-07-02T07:30:42;6.43;;;4.25;;
65375;SDS011;51976;47.332;9.404;2023-07-02T07:33:08;5.30;;;3.88;;
65375;SDS011;51976;47.332;9.404;2023-07-02T07:35:33;5.72;;;4.10;;
65375;SDS011;51976;47.332;9.404;2023-07-02T07:37:58;5.80;;;4.13;;
65375;SDS011;51976;47.332;9.404;2023-07-02T07:40:24;6.95;;;4.18;;
65375;SDS011;51976;47.332;9.404;2023-07-02T07:42:49;6.05;;;4.45;;
65375;SDS011;51976;47.332;9.404;2023-07-02T07:45:14;7.53;;;4.95;;
65375;SDS011;51976;47.332;9.404;2023-07-02T07:47:40;10.13;;;4.60;;
65375;SDS011;51976;47.332;9.404;2023-07-02T07:50:06;7.57;;;4.50;;
65375;SDS011;51976;47.332;9.404;2023-07-02T07:52:35;6.72;;;4.82;;
65375;SDS011;51976;47.332;9.404;2023-07-02T07:55:02;6.03;;;4.28;;
65375;SDS011;51976;47.332;9.404;2023-07-02T07:57:27;8.13;;;5.28;;
65375;SDS011;51976;47.332;9.404;2023-07-02T07:59:53;7.20;;;4.38;;
65375;SDS011;51976;47.332;9.404;2023-07-02T08:02:18;7.38;;;4.18;;
65375;SDS011;51976;47.332;9.404;2023-07-02T08:04:43;7.43;;;4.55;;
65375;SDS011;51976;47.332;9.404;2023-07-02T08:07:09;6.93;;;4.20;;
65375;SDS011;51976;47.332;9.404;2023-07-02T08:09:34;7.47;;;4.70;;
65375;SDS011;51976;47.332;9.404;2023-07-02T08:12:00;5.95;;;4.47;;
65375;SDS011;51976;47.332;9.404;2023-07-02T08:14:25;6.68;;;4.53;;
65375;SDS011;51976;47.332;9.404;2023-07-02T08:16:50;7.45;;;4.60;;
65375;SDS011;51976;47.332;9.404;2023-07-02T08:19:16;7.22;;;5.00;;
65375;SDS011;51976;47.332;9.404;2023-07-02T08:21:42;6.43;;;4.15;;
65375;SDS011;51976;47.332;9.404;2023-07-02T08:24:07;6.80;;;4.68;;
65375;SDS011;51976;47.332;9.404;2023-07-02T08:26:32;7.32;;;4.60;;
65375;SDS011;51976;47.332;9.404;2023-07-02T08:28:58;6.22;;;4.80;;
65375;SDS011;51976;47.332;9.404;2023-07-02T08:31:23;6.55;;;4.38;;
65375;SDS011;51976;47.332;9.404;2023-07-02T08:33:49;9.98;;;5.85;;
65375;SDS011;51976;47.332;9.404;2023-07-02T08:36:14;7.47;;;5.30;;
65375;SDS011;51976;47.332;9.404;2023-07-02T08:38:39;8.60;;;5.00;;
65375;SDS011;51976;47.332;9.404;2023-07-02T08:41:07;7.18;;;5.07;;
65375;SDS011;51976;47.332;9.404;2023-07-02T08:43:32;6.85;;;4.97;;
65375;SDS011;51976;47.332;9.404;2023-07-02T08:45:58;7.45;;;5.25;;
65375;SDS011;51976;47.332;9.404;2023-07-02T08:48:24;6.00;;;4.85;;
65375;SDS011;51976;47.332;9.404;2023-07-02T08:50:51;7.95;;;5.05;;
65375;SDS011;51976;47.332;9.404;2023-07-02T08:53:17;6.40;;;5.20;;
65375;SDS011;51976;47.332;9.404;2023-07-02T08:55:42;7.63;;;5.43;;
65375;SDS011;51976;47.332;9.404;2023-07-02T08:58:07;9.00;;;5.47;;
65375;SDS011;51976;47.332;9.404;2023-07-02T09:00:33;6.70;;;4.55;;
65375;SDS011;51976;47.332;9.404;2023-07-02T09:03:13;6.55;;;4.97;;
65375;SDS011;51976;47.332;9.404;2023-07-02T09:05:50;10.18;;;6.00;;
65375;SDS011;51976;47.332;9.404;2023-07-02T09:08:22;10.52;;;6.50;;
65375;SDS011;51976;47.332;9.404;2023-07-02T09:10:49;7.75;;;5.55;;
65375;SDS011;51976;47.332;9.404;2023-07-02T09:13:14;10.35;;;6.00;;
65375;SDS011;51976;47.332;9.404;2023-07-02T09:15:40;9.32;;;5.60;;
65375;SDS011;51976;47.332;9.404;2023-07-02T09:18:15;8.65;;;5.85;;
65375;SDS011;51976;47.332;9.404;2023-07-02T09:20:44;9.85;;;6.50;;
65375;SDS011;51976;47.332;9.404;2023-07-02T09:23:11;9.20;;;6.05;;
65375;SDS011;51976;47.332;9.404;2023-07-02T09:25:37;9.90;;;6.38;;
65375;SDS011;51976;47.332;9.404;2023-07-02T09:28:18;13.93;;;7.88;;
65375;SDS011;51976;47.332;9.404;2023-07-02T09:30:51;12.07;;;8.05;;
65375;SDS011;51976;47.332;9.404;2023-07-02T09:33:25;9.55;;;6.57;;
65375;SDS011;51976;47.332;9.404;2023-07-02T09:35:53;8.85;;;6.32;;
65375;SDS011;51976;47.332;9.404;2023-07-02T09:38:19;9.57;;;6.85;;
65375;SDS011;51976;47.332;9.404;2023-07-02T09:40:46;10.40;;;7.20;;
65375;SDS011;51976;47.332;9.404;2023-07-02T09:43:16;10.73;;;6.43;;
65375;SDS011;51976;47.332;9.404;2023-07-02T09:45:43;12.10;;;5.72;;
65375;SDS011;51976;47.332;9.404;2023-07-02T09:48:11;10.40;;;5.65;;
65375;SDS011;51976;47.332;9.404;2023-07-02T09:50:40;10.05;;;6.35;;
65375;SDS011;51976;47.332;9.404;2023-07-02T09:53:07;8.90;;;6.03;;
65375;SDS011;51976;47.332;9.404;2023-07-02T09:55:32;9.80;;;6.20;;
65375;SDS011;51976;47.332;9.404;2023-07-02T09:57:58;8.48;;;6.03;;
65375;SDS011;51976;47.332;9.404;2023-07-02T10:00:23;8.95;;;6.28;;
65375;SDS011;51976;47.332;9.404;2023-07-02T10:02:49;8.25;;;5.90;;
65375;SDS011;51976;47.332;9.404;2023-07-02T10:05:29;10.30;;;6.50;;
65375;SDS011;51976;47.332;9.404;2023-07-02T10:07:56;8.40;;;6.20;;
65375;SDS011;51976;47.332;9.404;2023-07-02T10:10:29;8.43;;;5.75;;
65375;SDS011;51976;47.332;9.404;2023-07-02T10:12:55;8.07;;;5.63;;
65375;SDS011;51976;47.332;9.404;2023-07-02T10:15:24;9.07;;;5.60;;
65375;SDS011;51976;47.332;9.404;2023-07-02T10:17:54;8.10;;;5.35;;
65375;SDS011;51976;47.332;9.404;2023-07-02T10:20:30;8.52;;;4.90;;
65375;SDS011;51976;47.332;9.404;2023-07-02T10:22:58;7.97;;;5.20;;
65375;SDS011;51976;47.332;9.404;2023-07-02T10:25:24;9.38;;;5.50;;
65375;SDS011;51976;47.332;9.404;2023-07-02T10:27:51;10.20;;;5.72;;
65375;SDS011;51976;47.332;9.404;2023-07-02T10:30:17;8.27;;;5.80;;
65375;SDS011;51976;47.332;9.404;2023-07-02T10:32:42;8.52;;;5.85;;
65375;SDS011;51976;47.332;9.404;2023-07-02T10:35:14;8.65;;;6.40;;
65375;SDS011;51976;47.332;9.404;2023-07-02T10:37:43;9.40;;;6.63;;
65375;SDS011;51976;47.332;9.404;2023-07-02T10:40:09;7.30;;;5.72;;
65375;SDS011;51976;47.332;9.404;2023-07-02T10:42:44;10.43;;;6.22;;
65375;SDS011;51976;47.332;9.404;2023-07-02T10:45:11;11.95;;;8.45;;
65375;SDS011;51976;47.332;9.404;2023-07-02T10:47:40;13.73;;;7.32;;
65375;SDS011;51976;47.332;9.404;2023-07-02T10:50:17;9.77;;;6.93;;
65375;SDS011;51976;47.332;9.404;2023-07-02T10:52:44;8.52;;;6.25;;
65375;SDS011;51976;47.332;9.404;2023-07-02T10:55:15;9.45;;;6.38;;
65375;SDS011;51976;47.332;9.404;2023-07-02T10:57:42;10.63;;;6.90;;
65375;SDS011;51976;47.332;9.404;2023-07-02T11:00:07;8.40;;;5.80;;
65375;SDS011;51976;47.332;9.404;2023-07-02T11:02:34;7.95;;;6.00;;
65375;SDS011;51976;47.332;9.404;2023-07-02T11:05:03;9.45;;;6.30;;
65375;SDS011;51976;47.332;9.404;2023-07-02T11:07:31;7.97;;;5.13;;
65375;SDS011;51976;47.332;9.404;2023-07-02T11:09:57;11.18;;;5.95;;
65375;SDS011;51976;47.332;9.404;2023-07-02T11:12:28;7.22;;;5.32;;
65375;SDS011;51976;47.332;9.404;2023-07-02T11:14:55;7.30;;;5.45;;
65375;SDS011;51976;47.332;9.404;2023-07-02T11:17:24;7.00;;;5.05;;
65375;SDS011;51976;47.332;9.404;2023-07-02T11:19:50;10.10;;;6.38;;
65375;SDS011;51976;47.332;9.404;2023-07-02T11:22:16;7.97;;;5.25;;
65375;SDS011;51976;47.332;9.404;2023-07-02T11:24:41;8.48;;;5.82;;
65375;SDS011;51976;47.332;9.404;2023-07-02T11:27:07;6.30;;;4.55;;
65375;SDS011;51976;47.332;9.404;2023-07-02T11:29:33;9.68;;;5.53;;
65375;SDS011;51976;47.332;9.404;2023-07-02T11:32:11;5.90;;;4.50;;
65375;SDS011;51976;47.332;9.404;2023-07-02T11:34:37;7.20;;;4.85;;
65375;SDS011;51976;47.332;9.404;2023-07-02T11:37:04;10.48;;;4.55;;
65375;SDS011;51976;47.332;9.404;2023-07-02T11:39:30;6.90;;;5.05;;
65375;SDS011;51976;47.332;9.404;2023-07-02T11:41:56;8.07;;;4.88;;
65375;SDS011;51976;47.332;9.404;2023-07-02T11:44:22;7.00;;;5.07;;
65375;SDS011;51976;47.332;9.404;2023-07-02T11:46:47;9.43;;;5.20;;
65375;SDS011;51976;47.332;9.404;2023-07-02T11:49:13;7.78;;;5.22;;
65375;SDS011;51976;47.332;9.404;2023-07-02T11:51:39;7.28;;;5.00;;
65375;SDS011;51976;47.332;9.404;2023-07-02T11:54:06;8.57;;;5.00;;
65375;SDS011;51976;47.332;9.404;2023-07-02T11:56:33;10.55;;;5.40;;
65375;SDS011;51976;47.332;9.404;2023-07-02T11:58:58;8.70;;;5.50;;
65375;SDS011;51976;47.332;9.404;2023-07-02T12:01:24;9.30;;;5.10;;
65375;SDS011;51976;47.332;9.404;2023-07-02T12:03:50;7.43;;;5.13;;
65375;SDS011;51976;47.332;9.404;2023-07-02T12:06:15;7.53;;;4.72;;
65375;SDS011;51976;47.332;9.404;2023-07-02T12:08:41;7.30;;;5.13;;
65375;SDS011;51976;47.332;9.404;2023-07-02T12:11:06;11.05;;;5.00;;
65375;SDS011;51976;47.332;9.404;2023-07-02T12:13:32;6.93;;;4.70;;
65375;SDS011;51976;47.332;9.404;2023-07-02T12:15:57;6.90;;;4.80;;
65375;SDS011;51976;47.332;9.404;2023-07-02T12:18:23;6.57;;;4.47;;
65375;SDS011;51976;47.332;9.404;2023-07-02T12:20:48;6.90;;;4.15;;
65375;SDS011;51976;47.332;9.404;2023-07-02T12:23:14;7.18;;;4.50;;
65375;SDS011;51976;47.332;9.404;2023-07-02T12:25:39;6.88;;;4.60;;
65375;SDS011;51976;47.332;9.404;2023-07-02T12:28:04;6.93;;;4.30;;
65375;SDS011;51976;47.332;9.404;2023-07-02T12:30:31;5.78;;;4.93;;
65375;SDS011;51976;47.332;9.404;2023-07-02T12:32:57;7.03;;;4.47;;
65375;SDS011;51976;47.332;9.404;2023-07-02T12:35:22;5.50;;;3.97;;
65375;SDS011;51976;47.332;9.404;2023-07-02T12:37:49;5.85;;;4.30;;
65375;SDS011;51976;47.332;9.404;2023-07-02T12:40:16;5.95;;;4.28;;
65375;SDS011;51976;47.332;9.404;2023-07-02T12:42:42;6.28;;;4.10;;
65375;SDS011;51976;47.332;9.404;2023-07-02T12:45:09;6.97;;;3.92;;
65375;SDS011;51976;47.332;9.404;2023-07-02T12:47:36;6.32;;;3.88;;
65375;SDS011;51976;47.332;9.404;2023-07-02T12:50:02;5.50;;;3.90;;
65375;SDS011;51976;47.332;9.404;2023-07-02T12:52:28;5.55;;;3.92;;
65375;SDS011;51976;47.332;9.404;2023-07-02T12:54:54;6.05;;;4.00;;
65375;SDS011;51976;47.332;9.404;2023-07-02T12:57:19;4.90;;;3.60;;
65375;SDS011;51976;47.332;9.404;2023-07-02T12:59:44;6.72;;;4.03;;
65375;SDS011;51976;47.332;9.404;2023-07-02T13:02:10;5.93;;;3.90;;
65375;SDS011;51976;47.332;9.404;2023-07-02T13:04:36;5.40;;;3.67;;
65375;SDS011;51976;47.332;9.404;2023-07-02T13:07:01;5.47;;;3.95;;
65375;SDS011;51976;47.332;9.404;2023-07-02T13:09:27;4.65;;;3.38;;
65375;SDS011;51976;47.332;9.404;2023-07-02T13:11:52;4.95;;;3.53;;
65375;SDS011;51976;47.332;9.404;2023-07-02T13:14:18;4.93;;;3.88;;
65375;SDS011;51976;47.332;9.404;2023-07-02T13:16:43;4.65;;;3.35;;
65375;SDS011;51976;47.332;9.404;2023-07-02T13:19:08;6.63;;;3.30;;
65375;SDS011;51976;47.332;9.404;2023-07-02T13:21:34;5.00;;;3.53;;
65375;SDS011;51976;47.332;9.404;2023-07-02T13:23:59;7.05;;;3.53;;
65375;SDS011;51976;47.332;9.404;2023-07-02T13:26:25;4.90;;;3.65;;
65375;SDS011;51976;47.332;9.404;2023-07-02T13:28:50;5.18;;;3.25;;
65375;SDS011;51976;47.332;9.404;2023-07-02T13:31:15;5.57;;;3.53;;
65375;SDS011;51976;47.332;9.404;2023-07-02T13:33:41;5.00;;;3.35;;
65375;SDS011;51976;47.332;9.404;2023-07-02T13:36:07;4.97;;;3.38;;
65375;SDS011;51976;47.332;9.404;2023-07-02T13:38:33;4.93;;;3.53;;
65375;SDS011;51976;47.332;9.404;2023-07-02T13:40:59;4.43;;;3.40;;
65375;SDS011;51976;47.332;9.404;2023-07-02T13:43:25;5.00;;;3.03;;
65375;SDS011;51976;47.332;9.404;2023-07-02T13:45:51;5.18;;;3.78;;
65375;SDS011;51976;47.332;9.404;2023-07-02T13:48:17;6.07;;;3.85;;
65375;SDS011;51976;47.332;9.404;2023-07-02T13:50:42;5.95;;;4.13;;
65375;SDS011;51976;47.332;9.404;2023-07-02T13:53:08;3.65;;;2.78;;
65375;SDS011;51976;47.332;9.404;2023-07-02T13:55:33;6.53;;;3.70;;
65375;SDS011;51976;47.332;9.404;2023-07-02T13:57:59;5.70;;;3.67;;
65375;SDS011;51976;47.332;9.404;2023-07-02T14:00:25;5.45;;;3.90;;
65375;SDS011;51976;47.332;9.404;2023-07-02T14:02:51;5.00;;;3.33;;
65375;SDS011;51976;47.332;9.404;2023-07-02T14:05:17;5.55;;;3.72;;
65375;SDS011;51976;47.332;9.404;2023-07-02T14:07:43;4.45;;;3.15;;
65375;SDS011;51976;47.332;9.404;2023-07-02T14:10:08;5.50;;;3.60;;
65375;SDS011;51976;47.332;9.404;2023-07-02T14:12:34;5.10;;;3.53;;
65375;SDS011;51976;47.332;9.404;2023-07-02T14:14:59;5.78;;;3.55;;
65375;SDS011;51976;47.332;9.404;2023-07-02T14:17:25;6.72;;;3.53;;
65375;SDS011;51976;47.332;9.404;2023-07-02T14:19:50;4.72;;;3.33;;
65375;SDS011;51976;47.332;9.404;2023-07-02T14:22:15;3.80;;;3.05;;
65375;SDS011;51976;47.332;9.404;2023-07-02T14:24:41;4.50;;;3.20;;
65375;SDS011;51976;47.332;9.404;2023-07-02T14:27:06;5.07;;;3.58;;
65375;SDS011;51976;47.332;9.404;2023-07-02T14:29:32;5.43;;;3.38;;
65375;SDS011;51976;47.332;9.404;2023-07-02T14:31:57;5.65;;;3.60;;
65375;SDS011;51976;47.332;9.404;2023-07-02T14:34:23;7.45;;;3.85;;
65375;SDS011;51976;47.332;9.404;2023-07-02T14:36:48;5.72;;;3.40;;
65375;SDS011;51976;47.332;9.404;2023-07-02T14:39:13;4.65;;;3.45;;
65375;SDS011;51976;47.332;9.404;2023-07-02T14:41:39;4.65;;;3.33;;